createdAt,value
2023-05-05T00:00:14.219Z,3232.00
2023-05-05T00:01:14.212Z,3238.00
2023-05-05T00:02:14.222Z,3237.00
2023-05-05T00:03:14.378Z,3236.00
2023-05-05T00:04:14.311Z,3223.00
2023-05-05T00:05:14.284Z,3216.00
2023-05-05T00:06:14.276Z,3231.00
2023-05-05T00:07:14.326Z,3232.00
2023-05-05T00:08:14.414Z,3232.00
2023-05-05T00:09:14.323Z,3228.00
2023-05-05T00:10:14.325Z,3222.00
2023-05-05T00:11:14.414Z,3221.00
2023-05-05T00:12:14.376Z,3219.00
2023-05-05T00:13:14.490Z,3216.00
2023-05-05T00:14:14.451Z,3218.00
2023-05-05T00:15:14.458Z,3221.00
2023-05-05T00:16:14.470Z,3209.00
2023-05-05T00:17:14.537Z,3209.00
2023-05-05T00:18:14.513Z,3209.00
2023-05-05T00:19:14.486Z,3212.00
2023-05-05T00:20:14.490Z,3217.00
2023-05-05T00:21:14.558Z,3206.00
2023-05-05T00:22:14.575Z,3207.00
2023-05-05T00:23:14.569Z,3208.00
2023-05-05T00:24:14.598Z,3198.00
2023-05-05T00:25:14.586Z,3195.00
2023-05-05T00:26:14.622Z,3196.00
2023-05-05T00:27:14.640Z,3208.00
2023-05-05T00:28:14.621Z,3203.00
2023-05-05T00:29:14.653Z,3188.00
2023-05-05T00:30:14.727Z,3198.00
2023-05-05T00:31:14.755Z,3194.00
2023-05-05T00:32:14.781Z,3189.00
2023-05-05T00:33:14.802Z,3188.00
2023-05-05T00:34:14.802Z,3194.00
2023-05-05T00:35:14.806Z,3182.00
2023-05-05T00:36:14.823Z,3182.00
2023-05-05T00:37:14.920Z,3182.00
2023-05-05T00:38:14.870Z,3188.00
2023-05-05T00:39:14.926Z,3191.00
2023-05-05T00:40:14.953Z,3179.00
2023-05-05T00:41:14.959Z,3182.00
2023-05-05T00:42:15.012Z,3178.00
2023-05-05T00:43:15.013Z,3180.00
2023-05-05T00:44:15.012Z,3175.00
2023-05-05T00:45:15.018Z,3174.00
2023-05-05T00:46:15.147Z,3173.00
2023-05-05T00:47:15.106Z,3175.00
2023-05-05T00:48:15.156Z,3185.00
2023-05-05T00:49:15.231Z,3176.00
2023-05-05T00:50:15.146Z,3168.00
2023-05-05T00:51:15.230Z,3175.00
2023-05-05T00:52:15.168Z,3166.00
2023-05-05T00:53:15.201Z,3163.00
2023-05-05T00:54:15.302Z,3155.00
2023-05-05T00:55:15.400Z,3166.00
2023-05-05T00:56:15.227Z,3167.00
2023-05-05T00:57:15.323Z,3159.00
2023-05-05T00:58:15.273Z,3166.00
2023-05-05T00:59:15.345Z,3148.00
2023-05-05T01:00:15.371Z,3153.00
2023-05-05T01:01:15.481Z,3156.00
2023-05-05T01:02:15.398Z,3154.00
2023-05-05T01:03:15.516Z,3154.00
2023-05-05T01:04:15.436Z,3146.00
2023-05-05T01:05:15.492Z,3144.00
2023-05-05T01:06:15.585Z,3133.00
2023-05-05T01:07:15.488Z,3139.00
2023-05-05T01:08:15.544Z,3139.00
2023-05-05T01:09:15.550Z,3145.00
2023-05-05T01:10:19.836Z,3123.00
2023-05-05T01:11:16.587Z,3124.00
2023-05-05T01:12:15.576Z,3128.00
2023-05-05T01:13:15.571Z,3130.00
2023-05-05T01:14:15.542Z,3137.00
2023-05-05T01:15:15.534Z,3145.00
2023-05-05T01:16:15.586Z,3148.00
2023-05-05T01:17:15.549Z,3141.00
2023-05-05T01:18:16.381Z,3138.00
2023-05-05T01:19:15.519Z,3126.00
2023-05-05T01:20:15.505Z,3128.00
2023-05-05T01:21:15.508Z,3138.00
2023-05-05T01:22:15.512Z,3127.00
2023-05-05T01:23:15.503Z,3111.00
2023-05-05T01:24:15.503Z,3124.00
2023-05-05T01:25:15.517Z,3106.00
2023-05-05T01:26:15.456Z,3110.00
2023-05-05T01:27:15.477Z,3119.00
2023-05-05T01:28:15.480Z,3120.00
2023-05-05T01:29:15.482Z,3121.00
2023-05-05T01:30:15.562Z,3113.00
2023-05-05T01:31:15.625Z,3102.00
2023-05-05T01:32:15.610Z,3109.00
2023-05-05T01:33:15.669Z,3110.00
2023-05-05T01:34:15.627Z,3105.00
2023-05-05T01:35:15.680Z,3101.00
2023-05-05T01:36:15.688Z,3100.00
2023-05-05T01:37:15.636Z,3098.00
2023-05-05T01:38:15.753Z,3105.00
2023-05-05T01:39:15.749Z,3092.00
2023-05-05T01:40:15.764Z,3084.00
2023-05-05T01:41:15.736Z,3089.00
2023-05-05T01:42:15.826Z,3082.00
2023-05-05T01:43:15.842Z,3098.00
2023-05-05T01:44:15.884Z,3093.00
2023-05-05T01:45:15.943Z,3087.00
2023-05-05T01:46:16.092Z,3094.00
2023-05-05T01:47:16.026Z,3085.00
2023-05-05T01:48:16.019Z,3077.00
2023-05-05T01:49:16.020Z,3076.00
2023-05-05T01:50:16.104Z,3070.00
2023-05-05T01:51:16.114Z,3055.00
2023-05-05T01:52:16.110Z,3068.00
2023-05-05T01:53:16.101Z,3074.00
2023-05-05T01:54:16.164Z,3058.00
2023-05-05T01:55:16.164Z,3066.00
2023-05-05T01:56:16.180Z,3067.00
2023-05-05T01:57:16.172Z,3053.00
2023-05-05T01:58:16.169Z,3061.00
2023-05-05T01:59:16.195Z,3053.00
2023-05-05T02:00:16.257Z,3048.00
2023-05-05T02:01:16.271Z,3047.00
2023-05-05T02:02:16.273Z,3055.00
2023-05-05T02:03:16.387Z,3050.00
2023-05-05T02:04:16.431Z,3041.00
2023-05-05T02:05:16.365Z,3041.00
2023-05-05T02:06:16.338Z,3035.00
2023-05-05T02:07:16.461Z,3039.00
2023-05-05T02:08:16.404Z,3031.00
2023-05-05T02:09:16.416Z,3024.00
2023-05-05T02:10:16.420Z,3036.00
2023-05-05T02:11:16.445Z,3041.00
2023-05-05T02:12:16.484Z,3018.00
2023-05-05T02:13:16.700Z,3018.00
2023-05-05T02:14:16.508Z,3023.00
2023-05-05T02:15:16.604Z,3023.00
2023-05-05T02:16:16.649Z,3023.00
2023-05-05T02:17:16.598Z,3017.00
2023-05-05T02:18:16.586Z,3018.00
2023-05-05T02:19:16.616Z,3023.00
2023-05-05T02:20:16.607Z,3012.00
2023-05-05T02:21:16.618Z,3008.00
2023-05-05T02:22:16.714Z,3012.00
2023-05-05T02:23:16.714Z,3010.00
2023-05-05T02:24:16.726Z,3001.00
2023-05-05T02:25:16.800Z,2995.00
2023-05-05T02:26:16.836Z,3005.00
2023-05-05T02:27:16.857Z,2990.00
2023-05-05T02:28:16.876Z,2987.00
2023-05-05T02:29:16.881Z,2993.00
2023-05-05T02:30:16.940Z,2989.00
2023-05-05T02:31:16.925Z,2984.00
2023-05-05T02:32:17.106Z,2989.00
2023-05-05T02:33:16.955Z,2989.00
2023-05-05T02:34:17.005Z,2984.00
2023-05-05T02:35:17.086Z,2984.00
2023-05-05T02:36:17.022Z,2990.00
2023-05-05T02:37:17.134Z,2980.00
2023-05-05T02:38:17.217Z,2975.00
2023-05-05T02:39:17.137Z,2961.00
2023-05-05T02:40:17.151Z,2968.00
2023-05-05T02:41:17.205Z,2967.00
2023-05-05T02:42:17.155Z,2953.00
2023-05-05T02:43:17.274Z,2962.00
2023-05-05T02:44:17.275Z,2968.00
2023-05-05T02:45:17.283Z,2969.00
2023-05-05T02:46:17.338Z,2958.00
2023-05-05T02:47:17.295Z,2953.00
2023-05-05T02:48:17.395Z,2966.00
2023-05-05T02:49:17.416Z,2954.00
2023-05-05T02:50:17.332Z,2959.00
2023-05-05T02:51:17.337Z,2959.00
2023-05-05T02:52:17.392Z,2951.00
2023-05-05T02:53:17.965Z,2951.00
2023-05-05T02:54:17.430Z,2946.00
2023-05-05T02:55:17.477Z,2957.00
2023-05-05T02:56:17.433Z,2948.00
2023-05-05T02:57:17.467Z,2947.00
2023-05-05T02:58:17.498Z,2953.00
2023-05-05T02:59:17.604Z,2947.00
2023-05-05T03:00:17.561Z,2934.00
2023-05-05T03:01:17.647Z,2930.00
2023-05-05T03:02:17.931Z,2940.00
2023-05-05T03:03:17.771Z,2937.00
2023-05-05T03:04:17.724Z,2929.00
2023-05-05T03:05:17.725Z,2933.00
2023-05-05T03:06:17.759Z,2921.00
2023-05-05T03:07:17.813Z,2909.00
2023-05-05T03:08:17.821Z,2915.00
2023-05-05T03:09:17.810Z,2910.00
2023-05-05T03:10:17.792Z,2916.00
2023-05-05T03:11:17.833Z,2914.00
2023-05-05T03:12:17.843Z,2913.00
2023-05-05T03:13:17.890Z,2894.00
2023-05-05T03:14:17.922Z,2902.00
2023-05-05T03:15:17.961Z,2906.00
2023-05-05T03:16:18.010Z,2903.00
2023-05-05T03:17:17.981Z,2896.00
2023-05-05T03:18:18.028Z,2896.00
2023-05-05T03:19:18.033Z,2893.00
2023-05-05T03:20:18.106Z,2882.00
2023-05-05T03:21:18.106Z,2876.00
2023-05-05T03:22:18.109Z,2895.00
2023-05-05T03:23:18.167Z,2889.00
2023-05-05T03:24:18.150Z,2887.00
2023-05-05T03:25:18.174Z,2877.00
2023-05-05T03:26:18.190Z,2889.00
2023-05-05T03:27:18.269Z,2883.00
2023-05-05T03:28:18.304Z,2878.00
2023-05-05T03:29:18.268Z,2877.00
2023-05-05T03:30:18.305Z,2879.00
2023-05-05T03:31:18.518Z,2878.00
2023-05-05T03:32:18.404Z,2879.00
2023-05-05T03:33:18.461Z,2882.00
2023-05-05T03:34:18.438Z,2877.00
2023-05-05T03:35:18.452Z,2862.00
2023-05-05T03:36:18.454Z,2867.00
2023-05-05T03:37:18.543Z,2869.00
2023-05-05T03:38:18.535Z,2869.00
2023-05-05T03:39:18.578Z,2872.00
2023-05-05T03:40:18.608Z,2865.00
2023-05-05T03:41:18.612Z,2864.00
2023-05-05T03:42:18.679Z,2857.00
2023-05-05T03:43:18.669Z,2858.00
2023-05-05T03:44:18.732Z,2864.00
2023-05-05T03:45:18.733Z,2865.00
2023-05-05T03:46:18.790Z,2848.00
2023-05-05T03:47:18.706Z,2847.00
2023-05-05T03:48:18.737Z,2862.00
2023-05-05T03:49:18.735Z,2850.00
2023-05-05T03:50:18.774Z,2847.00
2023-05-05T03:51:18.823Z,2849.00
2023-05-05T03:52:18.876Z,2852.00
2023-05-05T03:53:18.885Z,2847.00
2023-05-05T03:54:18.892Z,2841.00
2023-05-05T03:55:18.978Z,2860.00
2023-05-05T03:56:18.957Z,2839.00
2023-05-05T03:57:18.969Z,2843.00
2023-05-05T03:58:18.971Z,2840.00
2023-05-05T03:59:18.979Z,2834.00
2023-05-05T04:00:19.138Z,2851.00
2023-05-05T04:01:19.062Z,2833.00
2023-05-05T04:02:19.182Z,2832.00
2023-05-05T04:03:19.304Z,2843.00
2023-05-05T04:04:19.290Z,2843.00
2023-05-05T04:05:19.170Z,2847.00
2023-05-05T04:06:19.181Z,2834.00
2023-05-05T04:07:19.252Z,2830.00
2023-05-05T04:08:19.239Z,2823.00
2023-05-05T04:09:19.258Z,2842.00
2023-05-05T04:10:19.309Z,2856.00
2023-05-05T04:11:19.284Z,2859.00
2023-05-05T04:12:19.333Z,2832.00
2023-05-05T04:13:19.326Z,2813.00
2023-05-05T04:14:19.968Z,2785.00
2023-05-05T04:15:19.404Z,2786.00
2023-05-05T04:16:19.501Z,2756.00
2023-05-05T04:17:19.469Z,2737.00
2023-05-05T04:18:19.532Z,2722.00
2023-05-05T04:19:19.569Z,2697.00
2023-05-05T04:20:19.562Z,2704.00
2023-05-05T04:21:19.547Z,2643.00
2023-05-05T04:22:19.604Z,2641.00
2023-05-05T04:23:19.623Z,2625.00
2023-05-05T04:24:20.444Z,2592.00
2023-05-05T04:25:19.624Z,2580.00
2023-05-05T04:26:19.674Z,2559.00
2023-05-05T04:27:19.702Z,2553.00
2023-05-05T04:28:21.607Z,2542.00
2023-05-05T04:29:19.722Z,2531.00
2023-05-05T04:30:19.717Z,2511.00
2023-05-05T04:31:19.822Z,2490.00
2023-05-05T04:32:19.817Z,2494.00
2023-05-05T04:33:19.933Z,2489.00
2023-05-05T04:34:19.793Z,2485.00
2023-05-05T04:35:19.838Z,2462.00
2023-05-05T04:36:19.913Z,2459.00
2023-05-05T04:37:19.866Z,2461.00
2023-05-05T04:38:19.952Z,2452.00
2023-05-05T04:39:19.927Z,2456.00
2023-05-05T04:40:19.941Z,2441.00
2023-05-05T04:41:20.001Z,2446.00
2023-05-05T04:42:19.989Z,2448.00
2023-05-05T04:43:20.003Z,2438.00
2023-05-05T04:44:20.016Z,2440.00
2023-05-05T04:45:20.091Z,2443.00
2023-05-05T04:46:20.142Z,2441.00
2023-05-05T04:47:20.080Z,2435.00
2023-05-05T04:48:20.088Z,2446.00
2023-05-05T04:49:20.104Z,2427.00
2023-05-05T04:50:20.121Z,2436.00
2023-05-05T04:51:20.167Z,2444.00
2023-05-05T04:52:20.168Z,2458.00
2023-05-05T04:53:20.158Z,2459.00
2023-05-05T04:54:20.951Z,2474.00
2023-05-05T04:55:20.210Z,2460.00
2023-05-05T04:56:20.251Z,2463.00
2023-05-05T04:57:20.218Z,2457.00
2023-05-05T04:58:20.319Z,2468.00
2023-05-05T04:59:20.272Z,2457.00
2023-05-05T05:00:20.268Z,2451.00
2023-05-05T05:01:20.371Z,2448.00
2023-05-05T05:02:20.314Z,2454.00
2023-05-05T05:03:20.388Z,2437.00
2023-05-05T05:04:20.413Z,2423.00
2023-05-05T05:05:20.376Z,2423.00
2023-05-05T05:06:20.422Z,2420.00
2023-05-05T05:07:20.427Z,2430.00
2023-05-05T05:08:20.511Z,2409.00
2023-05-05T05:09:20.496Z,2412.00
2023-05-05T05:10:20.520Z,2414.00
2023-05-05T05:11:20.559Z,2402.00
2023-05-05T05:12:20.570Z,2398.00
2023-05-05T05:13:20.720Z,2392.00
2023-05-05T05:14:20.624Z,2400.00
2023-05-05T05:15:20.687Z,2396.00
2023-05-05T05:16:20.750Z,2394.00
2023-05-05T05:17:20.701Z,2379.00
2023-05-05T05:18:20.710Z,2394.00
2023-05-05T05:19:20.749Z,2393.00
2023-05-05T05:20:20.761Z,2387.00
2023-05-05T05:21:20.759Z,2389.00
2023-05-05T05:22:20.805Z,2383.00
2023-05-05T05:23:20.862Z,2401.00
2023-05-05T05:24:20.857Z,2397.00
2023-05-05T05:25:20.911Z,2394.00
2023-05-05T05:26:20.927Z,2387.00
2023-05-05T05:27:20.928Z,2412.00
2023-05-05T05:28:21.495Z,2409.00
2023-05-05T05:29:21.057Z,2419.00
2023-05-05T05:30:21.021Z,2430.00
2023-05-05T05:31:21.094Z,2432.00
2023-05-05T05:32:21.159Z,2427.00
2023-05-05T05:33:21.136Z,2420.00
2023-05-05T05:34:21.106Z,2413.00
2023-05-05T05:35:21.285Z,2424.00
2023-05-05T05:36:21.492Z,2413.00
2023-05-05T05:37:21.306Z,2406.00
2023-05-05T05:38:21.237Z,2413.00
2023-05-05T05:39:21.229Z,2421.00
2023-05-05T05:40:21.551Z,2396.00
2023-05-05T05:41:22.055Z,2368.00
2023-05-05T05:42:21.459Z,2350.00
2023-05-05T05:43:21.349Z,2320.00
2023-05-05T05:44:21.361Z,2298.00
2023-05-05T05:45:21.432Z,2298.00
2023-05-05T05:46:22.068Z,2296.00
2023-05-05T05:47:21.584Z,2282.00
2023-05-05T05:48:21.489Z,2280.00
2023-05-05T05:49:21.572Z,2262.00
2023-05-05T05:50:22.084Z,2238.00
2023-05-05T05:51:22.042Z,2245.00
2023-05-05T05:52:22.094Z,2232.00
2023-05-05T05:53:22.404Z,2196.00
2023-05-05T05:54:22.570Z,2220.00
2023-05-05T05:55:21.817Z,2214.00
2023-05-05T05:56:21.709Z,2211.00
2023-05-05T05:57:22.032Z,2221.00
2023-05-05T05:58:23.013Z,2233.00
2023-05-05T05:59:22.246Z,2226.00
2023-05-05T06:00:22.086Z,2228.00
2023-05-05T06:01:21.850Z,2223.00
2023-05-05T06:02:22.079Z,2237.00
2023-05-05T06:03:22.100Z,2249.00
2023-05-05T06:04:22.054Z,2247.00
2023-05-05T06:05:21.878Z,2230.00
2023-05-05T06:06:21.918Z,2245.00
2023-05-05T06:07:21.928Z,2232.00
2023-05-05T06:08:24.888Z,2231.00
2023-05-05T06:09:21.946Z,2236.00
2023-05-05T06:10:28.019Z,2232.00
2023-05-05T06:11:22.944Z,2233.00
2023-05-05T06:12:21.923Z,2235.00
2023-05-05T06:13:21.993Z,2235.00
2023-05-05T06:14:22.192Z,2236.00
2023-05-05T06:15:21.952Z,2232.00
2023-05-05T06:16:21.942Z,2229.00
2023-05-05T06:17:22.478Z,2205.00
2023-05-05T06:18:21.929Z,2146.00
2023-05-05T06:19:21.887Z,2127.00
2023-05-05T06:20:21.886Z,2124.00
2023-05-05T06:21:22.005Z,2127.00
2023-05-05T06:22:21.862Z,2094.00
2023-05-05T06:23:21.822Z,2057.00
2023-05-05T06:24:21.855Z,2035.00
2023-05-05T06:25:21.848Z,2070.00
2023-05-05T06:26:21.830Z,2026.00
2023-05-05T06:27:21.799Z,1951.00
2023-05-05T06:28:22.047Z,1895.00
2023-05-05T06:29:21.867Z,1875.00
2023-05-05T06:30:22.016Z,1912.00
2023-05-05T06:31:21.999Z,1898.00
2023-05-05T06:32:22.492Z,1918.00
2023-05-05T06:33:21.922Z,1907.00
2023-05-05T06:34:22.489Z,1889.00
2023-05-05T06:35:21.991Z,1881.00
2023-05-05T06:36:22.522Z,1877.00
2023-05-05T06:37:22.003Z,1884.00
2023-05-05T06:38:22.043Z,1895.00
2023-05-05T06:39:22.064Z,1871.00
2023-05-05T06:40:22.986Z,1853.00
2023-05-05T06:41:22.986Z,1840.00
2023-05-05T06:42:22.157Z,1831.00
2023-05-05T06:43:22.273Z,1801.00
2023-05-05T06:44:22.262Z,1817.00
2023-05-05T06:45:22.523Z,1813.00
2023-05-05T06:46:22.218Z,1799.00
2023-05-05T06:47:22.299Z,1843.00
2023-05-05T06:48:22.238Z,1828.00
2023-05-05T06:49:22.300Z,1841.00
2023-05-05T06:50:22.313Z,1858.00
2023-05-05T06:51:23.027Z,1848.00
2023-05-05T06:52:22.505Z,1861.00
2023-05-05T06:53:23.054Z,1861.00
2023-05-05T06:54:22.421Z,1876.00
2023-05-05T06:55:22.677Z,1898.00
2023-05-05T06:56:24.012Z,1908.00
2023-05-05T06:57:22.492Z,1890.00
2023-05-05T06:58:22.465Z,1807.00
2023-05-05T06:59:23.097Z,1792.00
2023-05-05T07:00:22.615Z,1772.00
2023-05-05T07:01:22.573Z,1758.00
2023-05-05T07:02:24.040Z,1716.00
2023-05-05T07:03:22.684Z,1668.00
2023-05-05T07:04:23.128Z,1608.00
2023-05-05T07:05:22.633Z,1608.00
2023-05-05T07:06:22.704Z,1590.00
2023-05-05T07:07:22.746Z,1641.00
2023-05-05T07:08:22.530Z,1630.00
2023-05-05T07:09:22.553Z,1651.00
2023-05-05T07:10:24.162Z,1654.00
2023-05-05T07:11:22.549Z,1633.00
2023-05-05T07:12:22.472Z,1565.00
2023-05-05T07:13:24.045Z,1512.00
2023-05-05T07:14:24.264Z,1485.00
2023-05-05T07:15:28.590Z,1455.00
2023-05-05T07:16:23.531Z,1454.00
2023-05-05T07:17:22.530Z,1417.00
2023-05-05T07:18:22.506Z,1380.00
2023-05-05T07:19:22.514Z,1381.00
2023-05-05T07:20:22.467Z,1377.00
2023-05-05T07:21:23.045Z,1354.00
2023-05-05T07:22:23.356Z,1348.00
2023-05-05T07:23:22.455Z,1322.00
2023-05-05T07:24:22.449Z,1282.00
2023-05-05T07:25:22.447Z,1250.00
2023-05-05T07:26:22.514Z,1238.00
2023-05-05T07:27:22.512Z,1219.00
2023-05-05T07:28:22.683Z,1219.00
2023-05-05T07:29:22.485Z,1161.00
2023-05-05T07:30:22.815Z,1159.00
2023-05-05T07:31:22.526Z,1135.00
2023-05-05T07:32:22.634Z,1100.00
2023-05-05T07:33:22.534Z,1092.00
2023-05-05T07:34:22.628Z,1063.00
2023-05-05T07:35:23.149Z,1066.00
2023-05-05T07:36:24.386Z,1078.00
2023-05-05T07:37:22.674Z,1049.00
2023-05-05T07:38:24.568Z,1060.00
2023-05-05T07:39:23.188Z,1030.00
2023-05-05T07:40:24.532Z,1091.00
2023-05-05T07:41:22.792Z,1114.00
2023-05-05T07:42:23.727Z,1129.00
2023-05-05T07:43:22.876Z,1116.00
2023-05-05T07:44:23.012Z,1152.00
2023-05-05T07:45:23.541Z,1184.00
2023-05-05T07:46:23.747Z,1223.00
2023-05-05T07:47:23.048Z,1226.00
2023-05-05T07:48:23.027Z,1262.00
2023-05-05T07:49:23.121Z,1209.00
2023-05-05T07:50:24.355Z,1194.00
2023-05-05T07:51:23.124Z,1163.00
2023-05-05T07:52:37.384Z,1171.00
2023-05-05T07:53:24.184Z,1103.00
2023-05-05T07:54:23.263Z,988.00
2023-05-05T07:55:23.120Z,936.00
2023-05-05T07:56:23.067Z,863.00
2023-05-05T07:57:23.083Z,783.00
2023-05-05T07:58:23.079Z,743.00
2023-05-05T07:59:23.098Z,701.00
2023-05-05T08:00:23.083Z,750.00
2023-05-05T08:01:23.037Z,786.00
2023-05-05T08:02:24.090Z,793.00
2023-05-05T08:03:23.115Z,788.00
2023-05-05T08:04:23.108Z,799.00
2023-05-05T08:05:23.025Z,775.00
2023-05-05T08:06:23.031Z,798.00
2023-05-05T08:07:23.044Z,857.00
2023-05-05T08:08:23.393Z,858.00
2023-05-05T08:09:23.100Z,774.00
2023-05-05T08:10:23.151Z,751.00
2023-05-05T08:11:27.797Z,773.00
2023-05-05T08:12:23.107Z,773.00
2023-05-05T08:13:23.097Z,742.00
2023-05-05T08:14:23.335Z,739.00
2023-05-05T08:15:23.119Z,775.00
2023-05-05T08:16:23.116Z,791.00
2023-05-05T08:17:23.117Z,788.00
2023-05-05T08:18:23.075Z,715.00
2023-05-05T08:19:29.411Z,762.00
2023-05-05T08:20:24.762Z,763.00
2023-05-05T08:21:23.062Z,771.00
2023-05-05T08:22:23.049Z,786.00
2023-05-05T08:23:23.061Z,788.00
2023-05-05T08:24:23.097Z,805.00
2023-05-05T08:25:23.049Z,816.00
2023-05-05T08:26:23.068Z,808.00
2023-05-05T08:27:22.984Z,732.00
2023-05-05T08:28:25.544Z,702.00
2023-05-05T08:29:24.054Z,678.00
2023-05-05T08:30:23.331Z,643.00
2023-05-05T08:31:23.267Z,622.00
2023-05-05T08:32:23.273Z,616.00
2023-05-05T08:33:23.254Z,579.00
2023-05-05T08:34:23.324Z,568.00
2023-05-05T08:35:23.551Z,573.00
2023-05-05T08:36:23.550Z,567.00
2023-05-05T08:37:23.556Z,551.00
2023-05-05T08:38:23.356Z,536.00
2023-05-05T08:39:23.358Z,536.00
2023-05-05T08:40:23.460Z,523.00
2023-05-05T08:41:23.447Z,552.00
2023-05-05T08:42:36.417Z,581.00
2023-05-05T08:43:24.436Z,564.00
2023-05-05T08:44:23.472Z,553.00
2023-05-05T08:45:23.402Z,581.00
2023-05-05T08:46:23.754Z,602.00
2023-05-05T08:47:23.440Z,602.00
2023-05-05T08:48:23.432Z,584.00
2023-05-05T08:49:23.594Z,604.00
2023-05-05T08:50:23.371Z,632.00
2023-05-05T08:51:23.384Z,638.00
2023-05-05T08:52:23.527Z,653.00
2023-05-05T08:53:23.419Z,671.00
2023-05-05T08:54:23.561Z,690.00
2023-05-05T08:55:23.328Z,695.00
2023-05-05T08:56:23.315Z,665.00
2023-05-05T08:57:23.331Z,650.00
2023-05-05T08:58:23.320Z,713.00
2023-05-05T08:59:23.344Z,692.00
2023-05-05T09:00:23.400Z,678.00
2023-05-05T09:01:23.387Z,712.00
2023-05-05T09:02:23.552Z,769.00
2023-05-05T09:03:24.203Z,787.00
2023-05-05T09:04:23.587Z,801.00
2023-05-05T09:05:23.428Z,782.00
2023-05-05T09:06:23.498Z,810.00
2023-05-05T09:07:23.488Z,749.00
2023-05-05T09:08:23.548Z,673.00
2023-05-05T09:09:26.038Z,740.00
2023-05-05T09:10:23.677Z,761.00
2023-05-05T09:11:23.672Z,810.00
2023-05-05T09:12:24.094Z,859.00
2023-05-05T09:13:23.709Z,884.00
2023-05-05T09:14:23.705Z,881.00
2023-05-05T09:15:23.772Z,932.00
2023-05-05T09:16:23.808Z,942.00
2023-05-05T09:17:23.792Z,958.00
2023-05-05T09:18:24.194Z,948.00
2023-05-05T09:19:24.092Z,927.00
2023-05-05T09:20:23.889Z,924.00
2023-05-05T09:21:24.042Z,953.00
2023-05-05T09:22:23.954Z,967.00
2023-05-05T09:23:24.069Z,972.00
2023-05-05T09:24:24.000Z,936.00
2023-05-05T09:25:24.023Z,967.00
2023-05-05T09:26:24.037Z,945.00
2023-05-05T09:27:24.631Z,929.00
2023-05-05T09:28:24.133Z,918.00
2023-05-05T09:29:24.118Z,922.00
2023-05-05T09:30:24.251Z,912.00
2023-05-05T09:31:24.197Z,889.00
2023-05-05T09:32:24.205Z,864.00
2023-05-05T09:33:24.240Z,827.00
2023-05-05T09:34:24.299Z,877.00
2023-05-05T09:35:25.075Z,819.00
2023-05-05T09:36:24.572Z,745.00
2023-05-05T09:37:25.097Z,658.00
2023-05-05T09:38:24.607Z,673.00
2023-05-05T09:39:24.439Z,714.00
2023-05-05T09:40:24.394Z,694.00
2023-05-05T09:41:24.445Z,769.00
2023-05-05T09:42:24.454Z,839.00
2023-05-05T09:43:24.590Z,818.00
2023-05-05T09:44:24.629Z,816.00
2023-05-05T09:45:24.533Z,806.00
2023-05-05T09:46:24.708Z,812.00
2023-05-05T09:47:29.981Z,832.00
2023-05-05T09:48:25.629Z,832.00
2023-05-05T09:49:24.604Z,834.00
2023-05-05T09:50:24.727Z,842.00
2023-05-05T09:51:24.578Z,860.00
2023-05-05T09:52:24.788Z,864.00
2023-05-05T09:53:25.117Z,846.00
2023-05-05T09:54:27.094Z,846.00
2023-05-05T09:55:24.707Z,867.00
2023-05-05T09:56:24.694Z,990.00
2023-05-05T09:57:24.857Z,969.00
2023-05-05T09:58:24.848Z,979.00
2023-05-05T09:59:24.882Z,969.00
2023-05-05T10:00:24.838Z,1000.00
2023-05-05T10:01:24.851Z,947.00
2023-05-05T10:02:24.879Z,1002.00
2023-05-05T10:03:24.908Z,1019.00
2023-05-05T10:04:24.937Z,926.00
2023-05-05T10:05:25.745Z,874.00
2023-05-05T10:06:24.977Z,843.00
2023-05-05T10:07:24.986Z,681.00
2023-05-05T10:08:24.998Z,610.00
2023-05-05T10:09:25.096Z,628.00
2023-05-05T10:10:26.060Z,624.00
2023-05-05T10:11:25.075Z,617.00
2023-05-05T10:12:25.070Z,607.00
2023-05-05T10:13:25.144Z,627.00
2023-05-05T10:14:25.150Z,608.00
2023-05-05T10:15:26.079Z,616.00
2023-05-05T10:16:27.334Z,627.00
2023-05-05T10:17:25.328Z,619.00
2023-05-05T10:18:25.286Z,625.00
2023-05-05T10:19:25.280Z,630.00
2023-05-05T10:20:25.285Z,634.00
2023-05-05T10:21:25.406Z,632.00
2023-05-05T10:22:25.325Z,610.00
2023-05-05T10:23:25.352Z,574.00
2023-05-05T10:24:25.350Z,555.00
2023-05-05T10:25:25.359Z,562.00
2023-05-05T10:26:25.526Z,565.00
2023-05-05T10:27:25.553Z,558.00
2023-05-05T10:28:25.437Z,546.00
2023-05-05T10:29:25.457Z,556.00
2023-05-05T10:30:25.504Z,557.00
2023-05-05T10:31:26.811Z,576.00
2023-05-05T10:32:51.514Z,586.00
2023-05-05T10:33:32.210Z,586.00
2023-05-05T10:34:26.701Z,587.00
2023-05-05T10:35:25.606Z,593.00
2023-05-05T10:36:25.631Z,605.00
2023-05-05T10:37:25.618Z,617.00
2023-05-05T10:38:26.796Z,622.00
2023-05-05T10:39:25.624Z,645.00
2023-05-05T10:40:25.530Z,655.00
2023-05-05T10:41:25.684Z,696.00
2023-05-05T10:42:25.590Z,682.00
2023-05-05T10:43:25.542Z,683.00
2023-05-05T10:44:26.208Z,665.00
2023-05-05T10:45:25.623Z,654.00
2023-05-05T10:46:25.674Z,634.00
2023-05-05T10:47:25.556Z,600.00
2023-05-05T10:48:25.515Z,558.00
2023-05-05T10:49:26.091Z,544.00
2023-05-05T10:50:26.104Z,566.00
2023-05-05T10:51:38.622Z,596.00
2023-05-05T10:52:26.482Z,596.00
2023-05-05T10:53:25.463Z,599.00
2023-05-05T10:54:25.599Z,590.00
2023-05-05T10:55:25.631Z,555.00
2023-05-05T10:56:25.489Z,543.00
2023-05-05T10:57:25.431Z,560.00
2023-05-05T10:58:25.480Z,560.00
2023-05-05T10:59:25.391Z,547.00
2023-05-05T11:00:25.496Z,538.00
2023-05-05T11:01:25.537Z,556.00
2023-05-05T11:02:25.708Z,559.00
2023-05-05T11:03:25.502Z,565.00
2023-05-05T11:04:25.322Z,558.00
2023-05-05T11:05:25.322Z,525.00
2023-05-05T11:06:25.352Z,500.00
2023-05-05T11:07:25.334Z,509.00
2023-05-05T11:08:25.566Z,508.00
2023-05-05T11:09:25.440Z,500.00
2023-05-05T11:10:25.489Z,512.00
2023-05-05T11:11:25.433Z,500.00
2023-05-05T11:12:25.582Z,500.00
2023-05-05T11:13:25.524Z,500.00
2023-05-05T11:14:25.662Z,500.00
2023-05-05T11:15:25.572Z,506.00
2023-05-05T11:16:25.616Z,515.00
2023-05-05T11:17:25.830Z,524.00
2023-05-05T11:18:25.689Z,516.00
2023-05-05T11:19:26.573Z,500.00
2023-05-05T11:20:25.654Z,500.00
2023-05-05T11:21:26.738Z,517.00
2023-05-05T11:22:25.740Z,500.00
2023-05-05T11:23:25.801Z,505.00
2023-05-05T11:24:25.784Z,508.00
2023-05-05T11:25:26.788Z,500.00
2023-05-05T11:26:26.174Z,508.00
2023-05-05T11:27:25.873Z,501.00
2023-05-05T11:28:25.882Z,503.00
2023-05-05T11:29:25.933Z,518.00
2023-05-05T11:30:25.997Z,502.00
2023-05-05T11:31:26.174Z,500.00
2023-05-05T11:32:26.256Z,501.00
2023-05-05T11:33:26.120Z,500.00
2023-05-05T11:34:26.688Z,514.00
2023-05-05T11:35:26.154Z,500.00
2023-05-05T11:36:26.190Z,500.00
2023-05-05T11:37:26.260Z,499.00
2023-05-05T11:38:26.253Z,503.00
2023-05-05T11:39:26.377Z,520.00
2023-05-05T11:40:26.344Z,524.00
2023-05-05T11:41:26.432Z,522.00
2023-05-05T11:42:26.518Z,517.00
2023-05-05T11:43:26.432Z,526.00
2023-05-05T11:44:26.481Z,569.00
2023-05-05T11:45:26.515Z,559.00
2023-05-05T11:46:26.731Z,567.00
2023-05-05T11:47:26.636Z,548.00
2023-05-05T11:48:26.658Z,554.00
2023-05-05T11:49:26.762Z,536.00
2023-05-05T11:50:26.735Z,514.00
2023-05-05T11:51:26.749Z,537.00
2023-05-05T11:52:26.866Z,559.00
2023-05-05T11:53:27.637Z,540.00
2023-05-05T11:54:26.873Z,527.00
2023-05-05T11:55:27.014Z,533.00
2023-05-05T11:56:27.181Z,521.00
2023-05-05T11:57:27.189Z,527.00
2023-05-05T11:58:27.139Z,523.00
2023-05-05T11:59:27.098Z,500.00
2023-05-05T12:00:27.113Z,492.00
2023-05-05T12:01:27.120Z,499.00
2023-05-05T12:02:27.244Z,500.00
2023-05-05T12:03:27.624Z,498.00
2023-05-05T12:04:27.253Z,563.00
2023-05-05T12:05:27.287Z,552.00
2023-05-05T12:06:27.364Z,553.00
2023-05-05T12:07:27.374Z,531.00
2023-05-05T12:08:27.366Z,515.00
2023-05-05T12:09:27.444Z,512.00
2023-05-05T12:10:27.453Z,547.00
2023-05-05T12:11:27.529Z,542.00
2023-05-05T12:12:27.568Z,540.00
2023-05-05T12:13:27.671Z,554.00